Bedminster Township, NJ

8:28 PM EDT on August 27, 2015 (GMT -0400)
Somerset | | Change Station
CLOSE
Current Station
Airport
Location: Somerville,
Elevation: 105 ft
Nearby Weather Stations

Elev 105 ft 40.62 °N, 74.67 °W | Updated 35 minutes ago

Partly Cloudy
Partly Cloudy
68 °F
Feels Like 68 °F
N
0
Wind Variable Wind from North

Today
High -- | Low -- °F
--% Chance of Precip.
Yesterday
High -- | Low -- °F
Precip. -- in
6:20 AM 7:39 PM
Waxing Gibbous, 95% visible
Pressure 30.07 in
Visibility 10.0 miles
Clouds Few 6500 ft
Dew Point 55 °F
Humidity 63%
Rainfall 0.00 in
Snow Depth Not available.
UV 0 out of 12
Pollen 10.20 out of 12
Air Quality Not available.
Flu Activity Not available.
METAR KSMQ 272353Z AUTO 00000KT 10SM FEW065 20/13 A3007 RMK AO2 SLP181 T02000128 10261 20200 51006
Pressure 30.07 in
Visibility 10.0 miles
Clouds Few 6500 ft
Dew Point 55 °F
Humidity 63%
Rainfall 0.00 in
Snow Depth Not available.
UV 0 out of 12
Pollen 10.20 out of 12
Air Quality Not available.
Flu Activity Not available.
METAR KSMQ 272353Z AUTO 00000KT 10SM FEW065 20/13 A3007 RMK AO2 SLP181 T02000128 10261 20200 51006

10-Day Weather Forecast

×

Almanac

Astronomy

Aug. 27, 2015 Rise Set
Actual Time
Civil Twilight
Nautical Twilight
Astronomical Twilight
Moon
Length of Visible Light
Length of Day
Tomorrow will be .
, % of the Moon is Illuminated

Today's Extremes

State Highs State Lows

Community

WunderPhotos

Upload Photos

1,850,272 photos uploaded!

WunderBlogs® & News

Nearby

Air Quality

  Air Quality AQ Index Pollutant
Not available.

Snow Depth

Station Depth Elevation

Earthquake Activity

City Distance Mag. Time & Date
Minimum magnitude displayed is 2.5.

Coastal Water Temperatures

Place Temperature

Stations

Nearby Weather Stations

Station Location Temp. Windchill Dew Point Humidity Wind Precip. Elev Updated Type